createdAt,value
2023-03-20T00:02:19.689Z,100092.56
2023-03-20T00:04:47.718Z,100087.97
2023-03-20T00:07:15.824Z,100091.72
2023-03-20T00:09:43.801Z,100090.88
2023-03-20T00:12:12.241Z,100085.50
2023-03-20T00:14:40.161Z,100086.56
2023-03-20T00:17:11.441Z,100086.56
2023-03-20T00:19:40.919Z,100076.81
2023-03-20T00:22:09.949Z,100080.53
2023-03-20T00:24:37.991Z,100075.16
2023-03-20T00:27:06.182Z,100063.53
2023-03-20T00:29:34.577Z,100065.41
2023-03-20T00:32:02.543Z,100066.44
2023-03-20T00:34:31.550Z,100063.75
2023-03-20T00:37:01.153Z,100059.41
2023-03-20T00:39:29.089Z,100054.00
2023-03-20T00:41:57.367Z,100059.41
2023-03-20T00:44:25.959Z,100053.41
2023-03-20T00:46:55.590Z,100044.69
2023-03-20T00:49:26.368Z,100044.69
2023-03-20T00:51:54.377Z,100043.88
2023-03-20T00:54:25.464Z,100038.72
2023-03-20T00:56:55.919Z,100038.72
2023-03-20T00:59:25.635Z,100030.63
2023-03-20T01:01:53.610Z,100038.72
2023-03-20T01:04:21.592Z,100045.13
2023-03-20T01:06:49.624Z,100045.38
2023-03-20T01:09:17.523Z,100041.81
2023-03-20T01:11:47.317Z,100044.53
2023-03-20T01:14:16.101Z,100039.13
2023-03-20T01:16:44.108Z,100046.19
2023-03-20T01:19:13.014Z,100041.00
2023-03-20T01:21:40.942Z,100043.69
2023-03-20T01:24:09.217Z,100037.72
2023-03-20T01:26:38.003Z,100042.25
2023-03-20T01:29:08.522Z,100038.13
2023-03-20T01:31:36.669Z,100034.63
2023-03-20T01:34:04.952Z,100034.63
2023-03-20T01:36:32.918Z,100034.63
2023-03-20T01:39:02.163Z,100026.31
2023-03-20T01:41:30.471Z,100028.19
2023-03-20T01:43:58.494Z,100017.63
2023-03-20T01:46:28.649Z,100021.13
2023-03-20T01:49:09.335Z,100024.88
2023-03-20T01:51:37.796Z,100026.75
2023-03-20T01:54:08.552Z,100025.91
2023-03-20T01:56:38.341Z,100025.91
2023-03-20T01:59:07.941Z,100021.56
2023-03-20T02:01:37.445Z,100017.25
2023-03-20T02:04:05.781Z,100024.28
2023-03-20T02:06:33.852Z,100016.19
2023-03-20T02:09:01.837Z,100006.47
2023-03-20T02:11:29.868Z,100018.88
2023-03-20T02:13:59.407Z,100018.06
2023-03-20T02:16:27.862Z,100013.69
2023-03-20T02:18:57.810Z,100014.53
2023-03-20T02:22:04.511Z,100017.25
2023-03-20T02:24:46.977Z,100014.53
2023-03-20T02:27:16.863Z,100017.25
2023-03-20T02:29:53.707Z,100014.31
2023-03-20T02:33:10.332Z,100017.81
2023-03-20T02:36:07.738Z,100012.66
2023-03-20T02:38:54.371Z,100018.88
2023-03-20T02:41:24.830Z,100013.50
2023-03-20T02:43:56.553Z,100012.88
2023-03-20T02:46:29.298Z,100015.56
2023-03-20T02:48:58.505Z,100015.56
2023-03-20T02:51:30.403Z,100013.94
2023-03-20T02:54:01.984Z,100022.84
2023-03-20T02:56:32.090Z,100016.63
2023-03-20T02:59:03.725Z,100022.84
2023-03-20T03:01:33.329Z,100023.03
2023-03-20T03:04:02.250Z,100019.31
2023-03-20T03:06:32.578Z,100020.34
2023-03-20T03:09:03.882Z,100023.03
2023-03-20T03:11:32.220Z,100023.03
2023-03-20T03:14:00.245Z,100021.41
2023-03-20T03:16:29.654Z,100023.91
2023-03-20T03:19:03.200Z,100031.13
2023-03-20T03:21:31.469Z,100039.22
2023-03-20T03:23:59.888Z,100033.81
2023-03-20T03:26:35.294Z,100039.22
2023-03-20T03:29:06.051Z,100033.00
2023-03-20T03:31:34.205Z,100033.81
2023-03-20T03:34:02.226Z,100040.06
2023-03-20T03:36:39.165Z,100043.59
2023-03-20T03:39:11.093Z,100045.47
2023-03-20T03:41:41.884Z,100053.31
2023-03-20T03:44:13.057Z,100046.28
2023-03-20T03:46:44.758Z,100054.13
2023-03-20T03:49:16.555Z,100046.06
2023-03-20T03:51:44.973Z,100055.00
2023-03-20T03:54:14.171Z,100055.00
2023-03-20T03:56:44.407Z,100061.41
2023-03-20T03:59:16.855Z,100064.72
2023-03-20T04:01:45.086Z,100056.63
2023-03-20T04:04:14.036Z,100058.50
2023-03-20T04:06:42.473Z,100056.63
2023-03-20T04:09:10.604Z,100056.63
2023-03-20T04:11:38.540Z,100062.03
2023-03-20T04:14:08.008Z,100064.50
2023-03-20T04:16:36.096Z,100067.41
2023-03-20T04:19:04.248Z,100063.66
2023-03-20T04:21:32.198Z,100070.72
2023-03-20T04:24:00.203Z,100069.66
2023-03-20T04:26:28.274Z,100072.38
2023-03-20T04:28:56.446Z,100077.75
2023-03-20T04:31:25.795Z,100077.75
2023-03-20T04:33:56.261Z,100080.25
2023-03-20T04:36:24.169Z,100079.44
2023-03-20T04:38:52.133Z,100077.56
2023-03-20T04:41:21.218Z,100083.97
2023-03-20T04:43:49.164Z,100084.81
2023-03-20T04:46:17.222Z,100089.38
2023-03-20T04:48:46.607Z,100093.94
2023-03-20T04:51:14.559Z,100081.50
2023-03-20T04:53:42.568Z,100092.28
2023-03-20T04:56:10.959Z,100092.28
2023-03-20T04:58:39.129Z,100100.38
2023-03-20T05:01:07.533Z,100102.25
2023-03-20T05:03:35.549Z,100100.38
2023-03-20T05:06:05.672Z,100104.97
2023-03-20T05:08:33.701Z,100105.78
2023-03-20T05:11:01.660Z,100104.72
2023-03-20T05:13:29.676Z,100114.50
2023-03-20T05:15:57.608Z,100117.19
2023-03-20T05:18:25.648Z,100120.09
2023-03-20T05:20:53.593Z,100113.06
2023-03-20T05:23:23.002Z,100123.59
2023-03-20T05:25:51.014Z,100127.97
2023-03-20T05:28:19.056Z,100122.56
2023-03-20T05:30:47.074Z,100124.22
2023-03-20T05:33:15.047Z,100130.66
2023-03-20T05:35:43.146Z,100130.66
2023-03-20T05:38:11.291Z,100133.38
2023-03-20T05:40:41.942Z,100128.78
2023-03-20T05:43:09.998Z,100141.22
2023-03-20T05:45:38.050Z,100140.19
2023-03-20T05:48:06.993Z,100146.63
2023-03-20T05:50:56.395Z,100148.28
2023-03-20T05:53:24.381Z,100154.50
2023-03-20T05:55:53.680Z,100151.56
2023-03-20T05:58:21.603Z,100148.06
2023-03-20T06:00:49.497Z,100151.38
2023-03-20T06:03:17.633Z,100151.97
2023-03-20T06:05:45.990Z,100156.53
2023-03-20T06:08:13.866Z,100156.53
2023-03-20T06:10:41.878Z,100159.84
2023-03-20T06:13:11.369Z,100160.06
2023-03-20T06:15:39.572Z,100159.47
2023-03-20T06:18:10.746Z,100149.50
2023-03-20T06:24:19.271Z,100160.47
2023-03-20T06:26:49.120Z,100154.06
2023-03-20T06:29:18.469Z,100151.56
2023-03-20T06:31:46.710Z,100152.63
2023-03-20T06:34:14.890Z,100161.53
2023-03-20T06:36:45.166Z,100169.63
2023-03-20T06:39:13.579Z,100161.78
2023-03-20T06:41:41.816Z,100162.78
2023-03-20T06:44:09.834Z,100165.72
2023-03-20T06:46:39.300Z,100169.44
2023-03-20T06:49:07.489Z,100164.88
2023-03-20T06:52:14.241Z,100170.88
2023-03-20T06:54:42.617Z,100171.50
2023-03-20T06:57:10.601Z,100172.31
2023-03-20T06:59:38.606Z,100179.34
2023-03-20T07:02:08.563Z,100177.69
2023-03-20T07:04:37.237Z,100179.34
2023-03-20T07:07:05.275Z,100180.16
2023-03-20T07:09:33.369Z,100178.09
2023-03-20T07:12:01.358Z,100180.34
2023-03-20T07:14:29.404Z,100185.53
2023-03-20T07:16:57.615Z,100188.00
2023-03-20T07:19:27.788Z,100191.75
2023-03-20T07:25:47.621Z,100191.31
2023-03-20T07:28:15.950Z,100186.75
2023-03-20T07:30:44.360Z,100182.16
2023-03-20T07:33:12.357Z,100191.69
2023-03-20T08:01:01.291Z,100198.28
2023-03-20T08:03:30.797Z,100199.94
2023-03-20T08:21:56.583Z,100207.78
2023-03-20T08:24:28.997Z,100207.16
2023-03-20T08:26:57.008Z,100209.03
2023-03-20T08:29:25.021Z,100199.50
2023-03-20T08:31:52.985Z,100203.63
2023-03-20T08:34:23.889Z,100205.28
2023-03-20T08:36:52.725Z,100210.69
2023-03-20T08:39:20.690Z,100213.19
2023-03-20T08:41:50.080Z,100214.00
2023-03-20T08:44:18.107Z,100212.13
2023-03-20T08:46:46.734Z,100205.69
2023-03-20T08:49:14.807Z,100206.50
2023-03-20T08:51:43.175Z,100208.16
2023-03-20T08:54:11.183Z,100210.28
2023-03-20T08:56:39.107Z,100214.38
2023-03-20T08:59:08.715Z,100211.47
2023-03-20T09:01:48.838Z,100211.03
2023-03-20T09:04:17.580Z,100220.56
2023-03-20T09:06:45.581Z,100217.66
2023-03-20T09:09:15.882Z,100222.00
2023-03-20T09:11:43.979Z,100222.25
2023-03-20T09:14:13.271Z,100226.13
2023-03-20T09:16:41.467Z,100215.97
2023-03-20T09:19:09.430Z,100213.25
2023-03-20T09:21:37.579Z,100223.03
2023-03-20T09:24:06.075Z,100226.97
2023-03-20T09:26:34.142Z,100228.00
2023-03-20T09:29:02.113Z,100209.72
2023-03-20T09:31:31.661Z,100211.38
2023-03-20T09:33:59.688Z,100209.25
2023-03-20T09:36:27.803Z,100211.97
2023-03-20T09:38:56.087Z,100214.47
2023-03-20T09:41:27.559Z,100205.09
2023-03-20T09:44:02.159Z,100203.81
2023-03-20T09:46:39.197Z,100204.66
2023-03-20T09:49:11.607Z,100202.78
2023-03-20T09:51:41.739Z,100201.75
2023-03-20T09:54:12.551Z,100197.16
2023-03-20T09:56:40.835Z,100195.06
2023-03-20T09:59:08.845Z,100193.19
2023-03-20T10:01:43.477Z,100185.72
2023-03-20T10:04:11.631Z,100180.06
2023-03-20T10:06:39.741Z,100179.03
2023-03-20T10:09:13.373Z,100182.56
2023-03-20T10:11:53.647Z,100167.78
2023-03-20T10:14:25.875Z,100163.66
2023-03-20T10:17:02.638Z,100169.66
2023-03-20T10:19:31.314Z,100172.13
2023-03-20T10:22:02.683Z,100164.84
2023-03-20T10:24:31.296Z,100164.63
2023-03-20T10:27:01.698Z,100161.94
2023-03-20T10:29:34.216Z,100164.41
2023-03-20T10:32:07.334Z,100167.97
2023-03-20T10:34:48.449Z,100157.72
2023-03-20T10:37:24.056Z,100157.72
2023-03-20T10:39:56.381Z,100153.38
2023-03-20T10:42:25.461Z,100155.03
2023-03-20T10:44:56.107Z,100152.13
2023-03-20T10:47:26.463Z,100148.34
2023-03-20T10:49:55.856Z,100149.22
2023-03-20T10:52:26.474Z,100144.63
2023-03-20T10:54:55.950Z,100145.44
2023-03-20T10:57:24.519Z,100147.09
2023-03-20T10:59:52.756Z,100143.81
2023-03-20T11:02:22.325Z,100136.72
2023-03-20T11:04:51.698Z,100140.50
2023-03-20T11:07:24.345Z,100133.41
2023-03-20T11:10:13.553Z,100120.97
2023-03-20T11:12:42.689Z,100124.28
2023-03-20T11:15:20.724Z,100126.75
2023-03-20T11:17:53.876Z,100122.19
2023-03-20T11:20:23.371Z,100119.50
2023-03-20T11:22:51.710Z,100118.44
2023-03-20T11:25:25.481Z,100108.69
2023-03-20T11:27:53.560Z,100107.63
2023-03-20T11:30:21.663Z,100099.31
2023-03-20T11:32:50.046Z,100099.53
2023-03-20T11:35:23.880Z,100103.06
2023-03-20T11:37:53.072Z,100098.47
2023-03-20T11:40:23.520Z,100105.31
2023-03-20T11:42:54.829Z,100096.16
2023-03-20T11:45:22.784Z,100095.09
2023-03-20T11:47:51.367Z,100093.00
2023-03-20T11:50:28.551Z,100088.44
2023-03-20T11:52:56.669Z,100081.97
2023-03-20T11:55:26.474Z,100080.94
2023-03-20T11:57:57.594Z,100077.63
2023-03-20T12:00:26.945Z,100065.19
2023-03-20T12:02:54.976Z,100065.19
2023-03-20T12:05:32.962Z,100065.19
2023-03-20T12:08:03.335Z,100064.94
2023-03-20T12:10:33.895Z,100063.06
2023-03-20T12:13:03.520Z,100058.50
2023-03-20T12:15:33.198Z,100053.66
2023-03-20T12:18:02.703Z,100056.38
2023-03-20T12:20:36.625Z,100059.94
2023-03-20T12:23:15.133Z,100049.25
2023-03-20T12:25:47.645Z,100038.00
2023-03-20T12:28:19.081Z,100035.44
2023-03-20T12:30:52.918Z,100030.63
2023-03-20T12:33:23.186Z,100027.47
2023-03-20T12:35:52.927Z,100019.94
2023-03-20T12:38:25.734Z,100028.22
2023-03-20T12:40:56.496Z,100025.31
2023-03-20T12:43:26.631Z,100016.97
2023-03-20T12:45:56.133Z,100013.81
2023-03-20T12:48:35.478Z,100018.97
2023-03-20T12:51:06.752Z,100024.19
2023-03-20T12:53:41.260Z,100016.41
2023-03-20T12:56:16.504Z,100017.84
2023-03-20T12:58:45.891Z,100006.81
2023-03-20T13:01:16.049Z,100010.09
2023-03-20T13:04:19.767Z,100010.47
2023-03-20T13:06:52.697Z,100003.78
2023-03-20T13:09:44.891Z,100007.91
2023-03-20T13:12:18.018Z,99998.72
2023-03-20T13:14:48.503Z,99994.97
2023-03-20T13:17:19.314Z,99996.16
2023-03-20T13:19:50.958Z,99991.56
2023-03-20T13:22:22.217Z,99994.88
2023-03-20T13:24:51.758Z,99995.22
2023-03-20T13:27:26.825Z,99991.47
2023-03-20T13:29:57.795Z,99987.69
2023-03-20T13:32:34.346Z,99995.59
2023-03-20T13:35:18.506Z,99993.50
2023-03-20T13:37:49.329Z,99994.31
2023-03-20T13:40:33.284Z,99985.94
2023-03-20T13:43:13.449Z,99987.22
2023-03-20T13:45:42.293Z,99982.44
2023-03-20T13:48:20.310Z,99980.19
2023-03-20T13:50:50.776Z,99981.81
2023-03-20T13:53:26.839Z,99974.31
2023-03-20T13:56:04.431Z,99974.66
2023-03-20T13:58:43.256Z,99974.09
2023-03-20T14:01:13.245Z,99975.94
2023-03-20T14:03:41.987Z,99969.97
2023-03-20T14:10:20.311Z,99974.78
2023-03-20T14:12:55.824Z,99970.44
2023-03-20T14:15:23.873Z,99964.19
2023-03-20T14:17:52.258Z,99953.63
2023-03-20T14:20:24.708Z,99961.13
2023-03-20T14:34:17.940Z,99945.13
2023-03-20T14:37:47.118Z,99944.91
2023-03-20T14:40:17.135Z,99946.31
2023-03-20T14:42:51.201Z,99944.06
2023-03-20T14:45:29.253Z,99949.94
2023-03-20T14:47:59.527Z,99949.94
2023-03-20T14:50:30.769Z,99953.69
2023-03-20T14:53:04.644Z,99946.41
2023-03-20T14:55:37.372Z,99951.00
2023-03-20T14:58:06.982Z,99942.41
2023-03-20T15:00:37.259Z,99947.00
2023-03-20T15:03:07.987Z,99949.38
2023-03-20T15:05:38.986Z,99950.09
2023-03-20T15:08:08.935Z,99947.50
2023-03-20T15:10:39.175Z,99950.81
2023-03-20T15:13:07.745Z,99953.66
2023-03-20T15:15:35.725Z,99949.16
2023-03-20T15:18:08.699Z,99959.34
2023-03-20T15:20:38.416Z,99952.03
2023-03-20T15:23:06.825Z,99955.56
2023-03-20T15:25:37.803Z,99957.19
2023-03-20T15:28:06.925Z,99958.84
2023-03-20T15:30:39.031Z,99953.06
2023-03-20T15:33:07.233Z,99951.66
2023-03-20T15:35:35.311Z,99954.81
2023-03-20T15:38:08.338Z,99947.75
2023-03-20T15:40:50.121Z,99955.28
2023-03-20T15:43:20.604Z,99953.28
2023-03-20T15:45:48.767Z,99956.09
2023-03-20T15:48:18.647Z,99957.00
2023-03-20T15:50:49.355Z,99963.38
2023-03-20T15:53:20.259Z,99967.81
2023-03-20T15:55:49.617Z,99962.53
2023-03-20T15:58:17.598Z,99961.34
2023-03-20T16:00:45.983Z,99965.53
2023-03-20T16:03:16.984Z,99967.09
2023-03-20T16:05:45.165Z,99965.88
2023-03-20T16:08:13.705Z,99970.94
2023-03-20T16:10:44.207Z,99968.91
2023-03-20T16:13:13.220Z,99972.91
2023-03-20T16:15:41.240Z,99967.97
2023-03-20T16:18:09.240Z,99962.97
2023-03-20T16:20:39.163Z,99977.78
2023-03-20T16:23:08.251Z,99977.19
2023-03-20T16:25:36.611Z,99988.44
2023-03-20T16:28:07.203Z,99988.66
2023-03-20T16:30:35.594Z,99991.00
2023-03-20T16:33:07.089Z,99987.69
2023-03-20T16:35:38.662Z,99996.88
2023-03-20T16:38:16.555Z,99996.88
2023-03-20T16:40:44.541Z,99996.88
2023-03-20T16:43:16.159Z,100003.91
2023-03-20T16:45:45.158Z,100004.97
2023-03-20T16:48:26.737Z,99998.50
2023-03-20T16:50:57.645Z,100003.91
2023-03-20T16:53:26.516Z,100006.41
2023-03-20T16:55:54.515Z,100012.63
2023-03-20T16:58:25.208Z,100011.81
2023-03-20T17:00:54.151Z,100015.78
2023-03-20T17:03:27.592Z,100021.78
2023-03-20T17:05:56.780Z,100015.56
2023-03-20T17:08:29.016Z,100020.97
2023-03-20T17:10:59.094Z,100024.50
2023-03-20T17:13:28.401Z,100028.00
2023-03-20T17:15:56.556Z,100023.44
2023-03-20T17:18:24.890Z,100022.41
2023-03-20T17:20:52.883Z,100022.16
2023-03-20T17:23:21.911Z,100018.38
2023-03-20T17:25:50.236Z,100023.56
2023-03-20T17:28:20.613Z,100024.63
2023-03-20T17:30:50.924Z,100020.88
2023-03-20T17:33:21.130Z,100035.00
2023-03-20T17:35:49.362Z,100038.72
2023-03-20T17:38:19.004Z,100037.69
2023-03-20T17:40:47.029Z,100036.63
2023-03-20T17:43:15.662Z,100035.59
2023-03-20T17:45:43.781Z,100035.59
2023-03-20T17:48:16.609Z,100032.88
2023-03-20T17:50:45.300Z,100034.53
2023-03-20T17:53:17.731Z,100033.47
2023-03-20T17:55:46.043Z,100039.72
2023-03-20T17:58:18.582Z,100038.66
2023-03-20T18:00:46.595Z,100043.00
2023-03-20T18:03:18.193Z,100045.50
2023-03-20T18:05:46.596Z,100042.94
2023-03-20T18:08:16.227Z,100050.13
2023-03-20T18:10:44.344Z,100045.94
2023-03-20T18:13:12.346Z,100048.63
2023-03-20T18:15:40.622Z,100049.09
2023-03-20T18:18:09.080Z,100046.84
2023-03-20T18:20:39.638Z,100058.09
2023-03-20T18:23:07.603Z,100067.75
2023-03-20T18:25:35.802Z,100061.72
2023-03-20T18:28:04.905Z,100065.69
2023-03-20T18:30:35.403Z,100069.44
2023-03-20T18:33:03.485Z,100069.66
2023-03-20T18:35:31.530Z,100066.34
2023-03-20T18:38:00.944Z,100064.09
2023-03-20T18:40:29.621Z,100068.91
2023-03-20T18:42:58.180Z,100069.38
2023-03-20T18:45:27.361Z,100083.94
2023-03-20T18:47:55.695Z,100078.75
2023-03-20T18:50:25.274Z,100077.91
2023-03-20T18:53:14.877Z,100077.91
2023-03-20T18:55:42.942Z,100072.53
2023-03-20T18:58:16.858Z,100074.41
2023-03-20T19:00:44.812Z,100076.28
2023-03-20T19:03:12.745Z,100072.38
2023-03-20T19:05:40.875Z,100078.59
2023-03-20T19:08:08.884Z,100077.78
2023-03-20T19:10:39.468Z,100074.25
2023-03-20T19:13:08.330Z,100073.44
2023-03-20T19:15:37.337Z,100073.44
2023-03-20T19:18:05.944Z,100064.72
2023-03-20T19:20:36.282Z,100071.16
2023-03-20T19:23:56.984Z,100072.22
2023-03-20T19:26:27.340Z,100062.69
2023-03-20T19:28:55.561Z,100071.03
2023-03-20T19:31:23.903Z,100061.50
2023-03-20T19:33:52.466Z,100063.34
2023-03-20T19:36:24.222Z,100059.00
2023-03-20T19:38:52.443Z,100063.59
2023-03-20T19:41:20.549Z,100061.94
2023-03-20T19:43:53.510Z,100056.53
2023-03-20T19:46:38.613Z,100053.00
2023-03-20T19:49:08.246Z,100048.88
2023-03-20T19:51:36.428Z,100050.75
2023-03-20T19:54:04.552Z,100049.13
2023-03-20T19:56:34.563Z,100046.63
2023-03-20T19:59:05.770Z,100045.81
2023-03-20T20:01:33.989Z,100045.81
2023-03-20T20:04:02.072Z,100052.03
2023-03-20T20:06:32.624Z,100048.50
2023-03-20T20:09:01.513Z,100055.78
2023-03-20T20:11:29.768Z,100061.41
2023-03-20T20:14:06.642Z,100065.78
2023-03-20T20:16:36.977Z,100063.28
2023-03-20T20:19:05.208Z,100074.09
2023-03-20T20:28:12.880Z,100080.31
2023-03-20T20:30:40.904Z,100089.47
2023-03-20T20:33:10.510Z,100085.97
2023-03-20T20:36:01.438Z,100086.16
2023-03-20T20:38:48.275Z,100086.97
2023-03-20T20:41:14.589Z,100084.53
2023-03-20T20:44:14.065Z,100082.66
2023-03-20T20:46:31.018Z,100079.94
2023-03-20T20:49:16.314Z,100077.44
2023-03-20T20:51:47.108Z,100075.81
2023-03-20T20:58:06.209Z,100091.19
2023-03-20T21:00:47.996Z,100089.31
2023-03-20T21:03:18.014Z,100081.22
2023-03-20T21:05:47.512Z,100086.63
2023-03-20T21:08:16.426Z,100086.81
2023-03-20T21:10:45.694Z,100088.72
2023-03-20T21:13:13.798Z,100083.31
2023-03-20T21:15:42.133Z,100087.06
2023-03-20T21:18:10.280Z,100084.56
2023-03-20T21:20:38.945Z,100091.84
2023-03-20T21:23:08.275Z,100081.06
2023-03-20T21:25:40.548Z,100087.47
2023-03-20T21:28:09.955Z,100082.09
2023-03-20T21:30:44.301Z,100083.16
2023-03-20T21:33:19.076Z,100089.59
2023-03-20T21:35:47.158Z,100091.69
2023-03-20T21:41:09.158Z,100094.41
2023-03-20T21:43:37.152Z,100094.41
2023-03-20T21:58:03.464Z,100088.38
2023-03-20T22:02:59.694Z,100093.78
2023-03-20T22:12:20.354Z,100094.03
2023-03-20T22:15:01.333Z,100086.34
2023-03-20T22:26:18.104Z,100081.78
2023-03-20T22:29:17.674Z,100079.09
2023-03-20T22:31:48.211Z,100074.72
2023-03-20T22:34:39.532Z,100073.91
2023-03-20T22:37:34.461Z,100071.22
2023-03-20T22:45:12.266Z,100069.78
2023-03-20T22:47:40.701Z,100063.56
2023-03-20T22:50:09.804Z,100068.97
2023-03-20T22:52:48.676Z,100066.47
2023-03-20T22:55:17.785Z,100064.78
2023-03-20T22:58:00.031Z,100071.00
2023-03-20T23:00:35.238Z,100070.19
2023-03-20T23:03:17.267Z,100062.31
2023-03-20T23:05:51.154Z,100065.25
2023-03-20T23:08:19.212Z,100068.97
2023-03-20T23:10:48.229Z,100068.97
2023-03-20T23:13:16.479Z,100068.97
2023-03-20T23:15:47.619Z,100077.06
2023-03-20T23:18:15.917Z,100065.69
2023-03-20T23:20:43.979Z,100069.41
2023-03-20T23:23:11.902Z,100060.28
2023-03-20T23:25:40.591Z,100062.38
2023-03-20T23:28:08.999Z,100066.09
2023-03-20T23:30:45.194Z,100064.47
2023-03-20T23:33:18.733Z,100065.28
2023-03-20T23:35:48.352Z,100061.97
2023-03-20T23:38:16.490Z,100061.97
2023-03-20T23:40:49.763Z,100061.16
2023-03-20T23:43:17.806Z,100058.47
2023-03-20T23:45:45.828Z,100056.00
2023-03-20T23:48:14.040Z,100057.84
2023-03-20T23:50:52.596Z,100052.44
2023-03-20T23:53:21.673Z,100052.44
2023-03-20T23:55:49.761Z,100047.06
2023-03-20T23:58:17.810Z,100049.75
